createdAt,value
2018-12-17T00:00:00.780Z,3.50
2018-12-17T00:02:29.208Z,3.50
2018-12-17T00:04:57.568Z,3.40
2018-12-17T00:07:25.920Z,3.30
2018-12-17T00:09:54.299Z,3.20
2018-12-17T00:12:22.964Z,3.30
2018-12-17T00:14:51.284Z,3.40
2018-12-17T00:17:19.813Z,3.40
2018-12-17T00:19:48.149Z,3.40
2018-12-17T00:22:16.515Z,3.50
2018-12-17T00:24:44.865Z,3.40
2018-12-17T00:27:13.166Z,3.50
2018-12-17T00:29:41.513Z,3.50
2018-12-17T00:32:09.932Z,3.60
2018-12-17T00:34:38.227Z,3.60
2018-12-17T00:37:06.584Z,3.60
2018-12-17T00:39:34.895Z,3.60
2018-12-17T00:42:03.215Z,3.60
2018-12-17T00:44:31.569Z,3.60
2018-12-17T00:46:59.931Z,3.50
2018-12-17T00:49:28.348Z,3.60
2018-12-17T00:51:56.682Z,3.60
2018-12-17T00:54:25.298Z,3.60
2018-12-17T00:56:53.606Z,3.60
2018-12-17T00:59:21.937Z,3.50
2018-12-17T01:01:50.536Z,3.60
2018-12-17T01:04:18.864Z,3.60
2018-12-17T01:06:47.188Z,3.60
2018-12-17T01:09:15.730Z,3.50
2018-12-17T01:11:44.042Z,3.50
2018-12-17T01:14:12.376Z,3.60
2018-12-17T01:16:40.708Z,3.60
2018-12-17T01:19:09.402Z,3.50
2018-12-17T01:21:38.047Z,3.50
2018-12-17T01:24:06.373Z,3.60
2018-12-17T01:26:35.035Z,3.60
2018-12-17T01:29:03.336Z,3.60
2018-12-17T01:31:31.678Z,3.60
2018-12-17T01:34:00.384Z,3.60
2018-12-17T01:36:28.691Z,3.60
2018-12-17T01:38:57.011Z,3.60
2018-12-17T01:41:25.519Z,3.60
2018-12-17T01:43:53.827Z,3.60
2018-12-17T01:46:22.164Z,3.60
2018-12-17T01:48:50.499Z,3.60
2018-12-17T01:51:18.836Z,3.50
2018-12-17T01:53:47.178Z,3.60
2018-12-17T01:56:15.495Z,3.60
2018-12-17T01:58:43.855Z,3.60
2018-12-17T02:01:12.463Z,3.60
2018-12-17T02:03:40.954Z,3.70
2018-12-17T02:06:09.253Z,3.70
2018-12-17T02:08:37.896Z,3.70
2018-12-17T02:11:06.333Z,3.70
2018-12-17T02:13:34.676Z,3.70
2018-12-17T02:16:03.010Z,3.70
2018-12-17T02:18:31.350Z,3.70
2018-12-17T02:20:59.667Z,3.70
2018-12-17T02:23:28.336Z,3.70
2018-12-17T02:25:56.673Z,3.60
2018-12-17T02:28:25.007Z,3.60
2018-12-17T02:30:53.382Z,3.60
2018-12-17T02:33:22.067Z,3.60
2018-12-17T02:35:50.421Z,3.60
2018-12-17T02:38:18.888Z,3.60
2018-12-17T02:40:47.273Z,3.60
2018-12-17T02:43:15.637Z,3.60
2018-12-17T02:45:43.982Z,3.60
2018-12-17T02:48:12.341Z,3.60
2018-12-17T02:50:40.754Z,3.60
2018-12-17T02:53:09.081Z,3.60
2018-12-17T02:55:37.503Z,3.50
2018-12-17T02:58:05.848Z,3.50
2018-12-17T03:00:34.190Z,3.50
2018-12-17T03:03:02.700Z,3.50
2018-12-17T03:05:31.056Z,3.60
2018-12-17T03:07:59.388Z,3.60
2018-12-17T03:10:27.736Z,3.60
2018-12-17T03:12:56.124Z,3.70
2018-12-17T03:15:24.469Z,3.70
2018-12-17T03:17:53.105Z,3.70
2018-12-17T03:20:21.457Z,3.70
2018-12-17T03:22:49.813Z,3.70
2018-12-17T03:25:18.173Z,3.60
2018-12-17T03:27:46.506Z,3.60
2018-12-17T03:30:14.926Z,3.60
2018-12-17T03:32:43.285Z,3.60
2018-12-17T03:35:11.745Z,3.60
2018-12-17T03:37:40.118Z,3.60
2018-12-17T03:40:08.987Z,3.60
2018-12-17T03:42:37.672Z,3.60
2018-12-17T03:45:06.657Z,3.70
2018-12-17T03:47:35.347Z,3.70
2018-12-17T03:50:04.468Z,3.70
2018-12-17T03:52:33.614Z,3.70
2018-12-17T03:55:02.329Z,3.60
2018-12-17T03:57:31.100Z,3.70
2018-12-17T03:59:59.936Z,3.70
2018-12-17T04:02:28.625Z,3.70
2018-12-17T04:04:57.356Z,3.70
2018-12-17T04:07:26.025Z,3.70
2018-12-17T04:09:54.416Z,3.70
2018-12-17T04:12:23.133Z,3.70
2018-12-17T04:14:51.575Z,3.70
2018-12-17T04:17:19.905Z,3.50
2018-12-17T04:19:48.587Z,3.50
2018-12-17T04:22:16.970Z,3.50
2018-12-17T04:24:45.326Z,3.50
2018-12-17T04:27:13.757Z,3.50
2018-12-17T04:29:42.421Z,3.50
2018-12-17T04:32:10.770Z,3.50
2018-12-17T04:34:39.113Z,3.60
2018-12-17T04:37:07.462Z,3.60
2018-12-17T04:39:35.817Z,3.60
2018-12-17T04:42:04.272Z,3.50
2018-12-17T04:44:32.701Z,3.50
2018-12-17T04:47:01.032Z,3.50
2018-12-17T04:49:29.464Z,3.50
2018-12-17T04:51:57.811Z,3.50
2018-12-17T04:54:26.594Z,3.50
2018-12-17T04:56:54.941Z,3.50
2018-12-17T04:59:23.322Z,3.60
2018-12-17T05:01:51.692Z,3.60
2018-12-17T05:04:20.050Z,3.60
2018-12-17T05:06:48.391Z,3.60
2018-12-17T05:09:16.915Z,3.50
2018-12-17T05:11:45.290Z,3.60
2018-12-17T05:14:13.759Z,3.60
2018-12-17T05:16:42.103Z,3.60
2018-12-17T05:19:10.461Z,3.60
2018-12-17T05:21:39.170Z,3.50
2018-12-17T05:24:07.530Z,3.40
2018-12-17T05:26:35.882Z,3.50
2018-12-17T05:29:04.419Z,3.50
2018-12-17T05:31:32.842Z,3.50
2018-12-17T05:34:01.207Z,3.50
2018-12-17T05:36:29.553Z,3.50
2018-12-17T05:38:57.925Z,3.50
2018-12-17T05:41:26.256Z,3.50
2018-12-17T05:43:54.596Z,3.60
2018-12-17T05:46:22.969Z,3.50
2018-12-17T05:48:51.337Z,3.40
2018-12-17T05:51:19.749Z,3.40
2018-12-17T05:53:48.147Z,3.50
2018-12-17T05:56:16.565Z,3.50
2018-12-17T05:58:44.922Z,3.50
2018-12-17T06:01:17.337Z,3.50
2018-12-17T06:03:45.696Z,3.50
2018-12-17T06:06:14.049Z,3.50
2018-12-17T06:08:42.444Z,3.50
2018-12-17T06:11:10.793Z,3.50
2018-12-17T06:13:39.138Z,3.50
2018-12-17T06:16:07.512Z,3.50
2018-12-17T06:18:35.976Z,3.50
2018-12-17T06:21:04.491Z,3.60
2018-12-17T06:23:32.881Z,3.60
2018-12-17T06:26:01.229Z,3.60
2018-12-17T06:28:29.874Z,3.60
2018-12-17T06:30:58.271Z,3.50
2018-12-17T06:33:26.608Z,3.60
2018-12-17T06:35:54.987Z,3.60
2018-12-17T06:38:23.366Z,3.60
2018-12-17T06:40:51.784Z,3.60
2018-12-17T06:43:20.139Z,3.60
2018-12-17T06:45:48.566Z,3.60
2018-12-17T06:48:17.383Z,3.60
2018-12-17T06:50:45.949Z,3.60
2018-12-17T06:53:14.484Z,3.60
2018-12-17T06:55:42.847Z,3.50
2018-12-17T06:58:11.607Z,3.60
2018-12-17T07:00:40.016Z,3.60
2018-12-17T07:03:08.372Z,3.60
2018-12-17T07:05:36.811Z,3.60
2018-12-17T07:08:05.174Z,3.60
2018-12-17T07:10:33.541Z,3.60
2018-12-17T07:13:01.924Z,3.70
2018-12-17T07:15:30.241Z,3.70
2018-12-17T07:17:58.644Z,3.70
2018-12-17T07:20:27.003Z,3.70
2018-12-17T07:22:55.418Z,3.70
2018-12-17T07:25:23.785Z,3.70
2018-12-17T07:27:52.251Z,3.70
2018-12-17T07:30:20.696Z,3.70
2018-12-17T07:32:52.254Z,3.70
2018-12-17T07:35:20.782Z,3.70
2018-12-17T07:37:49.181Z,3.70
2018-12-17T07:40:17.573Z,3.80
2018-12-17T07:42:46.093Z,3.70
2018-12-17T07:45:15.006Z,3.70
2018-12-17T07:47:43.723Z,3.80
2018-12-17T07:50:12.782Z,3.90
2018-12-17T07:52:41.372Z,3.80
2018-12-17T07:55:09.889Z,3.80
2018-12-17T07:57:38.285Z,3.80
2018-12-17T08:00:07.810Z,3.80
2018-12-17T08:02:36.185Z,3.80
2018-12-17T08:05:05.129Z,3.80
2018-12-17T08:07:33.497Z,3.90
2018-12-17T08:10:01.832Z,3.80
2018-12-17T08:12:30.260Z,3.90
2018-12-17T08:14:58.691Z,3.80
2018-12-17T08:17:27.142Z,3.80
2018-12-17T08:19:55.737Z,3.90
2018-12-17T08:22:24.457Z,3.90
2018-12-17T08:24:52.849Z,4.00
2018-12-17T08:27:21.218Z,4.00
2018-12-17T08:29:49.655Z,4.10
2018-12-17T08:32:18.139Z,4.10
2018-12-17T08:34:46.617Z,4.10
2018-12-17T08:37:15.034Z,4.10
2018-12-17T08:39:43.440Z,4.10
2018-12-17T08:42:11.866Z,4.10
